Time;durP1;ratioP1;P1;durP2;ratioP2;P2;SDS_P1;SDS_P2;PMS_P1;PMS_P2;Temp;Humidity;BMP_temperature;BMP_pressure;BME280_temperature;BME280_humidity;BME280_pressure;Samples;Min_cycle;Max_cycle;Signal;HPM_P1;HPM_P2
2023/04/20 00:02:27;;;;;;;;;;;;;;;12.96;56.13;99785.75;4404843;32;33888;-83
2023/04/20 00:04:55;;;;;;;;;;;;;;;12.53;57.86;99804.78;4400144;32;32209;-83
2023/04/20 00:07:23;;;;;;;;;;;;;;;12.80;56.92;99797.16;4415962;32;34222;-83
2023/04/20 00:09:51;;;;;;;;;;;;;;;12.70;57.04;99789.78;4403192;32;33284;-83
2023/04/20 00:12:18;;;;;;;;;;;;;;;12.74;57.12;99781.59;4403401;32;34095;-83
2023/04/20 00:14:46;;;;;;;;;;;;;;;12.91;56.43;99787.78;4414518;32;34094;-84
2023/04/20 00:17:13;;;;;;;;;;;;;;;12.85;56.94;99788.97;4407220;32;33911;-83
2023/04/20 00:19:41;;;;;;;;;;;;;;;13.15;55.74;99786.50;4406075;32;33534;-83
2023/04/20 00:22:08;;;;;;;;;;;;;;;13.07;55.96;99778.94;4410395;32;34146;-84
2023/04/20 00:24:37;;;;;;;;;;;;;;;13.17;55.74;99779.31;4405471;32;33026;-83
2023/04/20 00:27:05;;;;;;;;;;;;;;;13.10;56.23;99788.50;4408312;32;33263;-84
2023/04/20 00:29:33;;;;;;;;;;;;;;;13.04;56.60;99772.94;4408308;32;34462;-83
2023/04/20 00:32:01;;;;;;;;;;;;;;;13.04;56.99;99780.91;4422084;32;34311;-84
2023/04/20 00:34:29;;;;;;;;;;;;;;;13.13;56.43;99776.91;4397214;32;32697;-83
2023/04/20 00:36:59;;;;;;;;;;;;;;;13.27;55.90;99777.03;4402219;32;33362;-84
2023/04/20 00:39:27;;;;;;;;;;;;;;;13.29;55.88;99777.78;4407819;32;33300;-84
2023/04/20 00:42:03;;;;;;;;;;;;;;;13.36;55.48;99775.66;4405832;32;33746;-84
2023/04/20 00:44:31;;;;;;;;;;;;;;;13.28;56.00;99776.09;4411754;32;32261;-84
2023/04/20 00:47:00;;;;;;;;;;;;;;;13.40;55.34;99774.56;4408341;32;33500;-84
2023/04/20 00:49:29;;;;;;;;;;;;;;;13.29;55.97;99777.78;4410397;32;34874;-85
2023/04/20 00:51:58;;;;;;;;;;;;;;;13.33;56.11;99774.03;4422016;32;34103;-84
2023/04/20 00:54:26;;;;;;;;;;;;;;;13.26;56.20;99775.31;4422266;32;32959;-84
2023/04/20 00:56:54;;;;;;;;;;;;;;;13.54;55.46;99772.84;4405653;32;32703;-84
2023/04/20 00:59:22;;;;;;;;;;;;;;;13.39;55.85;99776.38;4419873;32;34180;-84
2023/04/20 01:01:51;;;;;;;;;;;;;;;13.39;56.07;99773.72;4422587;32;33588;-84
2023/04/20 01:04:19;;;;;;;;;;;;;;;13.51;55.54;99775.66;4407938;32;31702;-84
2023/04/20 01:06:46;;;;;;;;;;;;;;;13.23;56.17;99773.69;4408760;32;33577;-83
2023/04/20 01:09:15;;;;;;;;;;;;;;;13.27;56.60;99771.72;4420665;32;34941;-83
2023/04/20 01:11:43;;;;;;;;;;;;;;;13.41;55.90;99781.56;4418877;32;34775;-84
2023/04/20 01:14:16;;;;;;;;;;;;;;;13.40;55.71;99775.41;4408311;32;32351;-84
2023/04/20 01:16:46;;;;;;;;;;;;;;;13.24;56.34;99774.53;4418560;32;33838;-85
2023/04/20 01:19:14;;;;;;;;;;;;;;;13.35;55.88;99777.47;4419911;32;34711;-84
2023/04/20 01:21:42;;;;;;;;;;;;;;;13.06;56.91;99784.34;4422667;32;34977;-84
2023/04/20 01:24:10;;;;;;;;;;;;;;;13.02;56.58;99785.44;4419324;32;33737;-84
2023/04/20 01:26:37;;;;;;;;;;;;;;;12.97;57.02;99779.53;4407150;32;33154;-86
2023/04/20 01:29:07;;;;;;;;;;;;;;;13.13;56.37;99780.41;4432711;32;33846;-86
2023/04/20 01:31:36;;;;;;;;;;;;;;;12.96;56.99;99776.03;4403617;32;32919;-84
2023/04/20 01:34:03;;;;;;;;;;;;;;;12.93;56.82;99768.22;4412834;32;33078;-83
2023/04/20 01:36:32;;;;;;;;;;;;;;;12.80;56.65;99769.81;4419989;32;34158;-83
2023/04/20 01:39:01;;;;;;;;;;;;;;;12.82;56.60;99775.91;4410197;32;34315;-83
2023/04/20 01:41:28;;;;;;;;;;;;;;;12.68;57.43;99781.94;4411619;32;34248;-83
2023/04/20 01:43:56;;;;;;;;;;;;;;;12.84;56.82;99779.31;4403703;32;32370;-83
2023/04/20 01:46:24;;;;;;;;;;;;;;;12.87;56.89;99776.53;4423890;32;33841;-83
2023/04/20 01:48:51;;;;;;;;;;;;;;;12.98;56.39;99779.44;4417146;32;32886;-82
2023/04/20 01:51:18;;;;;;;;;;;;;;;12.72;56.92;99775.53;4399522;32;33411;-83
2023/04/20 01:53:48;;;;;;;;;;;;;;;12.70;56.79;99773.91;4410769;32;32477;-82
2023/04/20 01:56:15;;;;;;;;;;;;;;;12.56;57.20;99778.13;4411765;32;34093;-82
2023/04/20 01:58:43;;;;;;;;;;;;;;;12.55;57.13;99776.41;4415021;32;32921;-82
2023/04/20 02:01:11;;;;;;;;;;;;;;;12.56;57.01;99771.97;4406213;32;32946;-82
2023/04/20 02:03:39;;;;;;;;;;;;;;;12.39;57.43;99780.81;4411395;32;33781;-82
2023/04/20 02:06:08;;;;;;;;;;;;;;;12.43;57.23;99795.56;4411594;32;34225;-82
2023/04/20 02:08:35;;;;;;;;;;;;;;;12.26;57.84;99791.16;4413978;32;35112;-83
2023/04/20 02:11:03;;;;;;;;;;;;;;;12.37;57.58;99784.47;4418841;32;34739;-82
2023/04/20 02:13:35;;;;;;;;;;;;;;;12.27;57.46;99784.06;4417396;32;33341;-82
2023/04/20 02:16:02;;;;;;;;;;;;;;;12.20;57.67;99780.00;4407390;32;33820;-82
2023/04/20 02:18:31;;;;;;;;;;;;;;;12.05;57.97;99785.13;4409780;32;33045;-82
2023/04/20 02:21:00;;;;;;;;;;;;;;;11.91;58.82;99784.97;4416085;32;33949;-82
2023/04/20 02:23:28;;;;;;;;;;;;;;;12.03;58.46;99791.47;4411212;32;32311;-82
2023/04/20 02:25:55;;;;;;;;;;;;;;;11.73;59.50;99796.44;4409153;32;34300;-83
2023/04/20 02:28:23;;;;;;;;;;;;;;;11.62;59.79;99789.00;4415006;32;33454;-82
2023/04/20 02:30:50;;;;;;;;;;;;;;;11.77;59.48;99798.88;4408911;32;32743;-82
2023/04/20 02:33:20;;;;;;;;;;;;;;;11.59;60.04;99788.31;4403798;32;32536;-82
2023/04/20 02:35:49;;;;;;;;;;;;;;;11.86;59.20;99781.69;4418438;32;34440;-82
2023/04/20 02:38:17;;;;;;;;;;;;;;;12.07;58.26;99784.22;4415863;32;35110;-82
2023/04/20 02:40:45;;;;;;;;;;;;;;;11.68;59.54;99786.09;4414930;32;34167;-82
2023/04/20 02:43:13;;;;;;;;;;;;;;;11.83;59.22;99779.22;4400955;32;31777;-82
2023/04/20 02:45:43;;;;;;;;;;;;;;;11.88;58.95;99785.13;4430690;32;33970;-82
2023/04/20 02:48:11;;;;;;;;;;;;;;;11.73;59.48;99785.88;4415133;32;34760;-82
2023/04/20 02:50:40;;;;;;;;;;;;;;;11.96;58.55;99782.97;4421010;32;34396;-82
2023/04/20 02:53:10;;;;;;;;;;;;;;;11.98;58.63;99790.84;4417988;32;34005;-83
2023/04/20 02:55:39;;;;;;;;;;;;;;;11.90;59.23;99788.56;4405563;32;33841;-83
2023/04/20 02:58:09;;;;;;;;;;;;;;;12.14;58.10;99781.19;4403643;32;31934;-83
2023/04/20 03:00:44;;;;;;;;;;;;;;;12.04;58.38;99791.38;4421629;32;33883;-83
2023/04/20 03:03:13;;;;;;;;;;;;;;;12.01;58.59;99793.31;4430684;32;32267;-83
2023/04/20 03:05:42;;;;;;;;;;;;;;;12.04;58.68;99791.38;4404767;32;33851;-83
2023/04/20 03:08:10;;;;;;;;;;;;;;;12.01;58.88;99796.84;4421350;32;33922;-83
2023/04/20 03:10:38;;;;;;;;;;;;;;;11.93;58.96;99793.69;4422226;32;34198;-83
2023/04/20 03:13:07;;;;;;;;;;;;;;;11.98;59.06;99791.69;4406863;32;32231;-82
2023/04/20 03:15:34;;;;;;;;;;;;;;;12.05;58.57;99787.78;4415457;32;34765;-83
2023/04/20 03:18:03;;;;;;;;;;;;;;;12.20;57.83;99787.94;4419795;32;34204;-82
2023/04/20 03:20:31;;;;;;;;;;;;;;;12.07;58.40;99787.72;4405837;32;32970;-82
2023/04/20 03:22:59;;;;;;;;;;;;;;;11.93;58.74;99782.25;4406243;32;33248;-83
2023/04/20 03:25:29;;;;;;;;;;;;;;;11.92;59.07;99785.84;4417708;32;32793;-83
2023/04/20 03:27:56;;;;;;;;;;;;;;;12.00;58.75;99789.81;4403455;32;33361;-83
2023/04/20 03:30:24;;;;;;;;;;;;;;;12.03;58.45;99794.97;4404860;32;33084;-83
2023/04/20 03:32:52;;;;;;;;;;;;;;;11.91;58.74;99790.25;4418267;32;33129;-83
2023/04/20 03:35:20;;;;;;;;;;;;;;;11.79;58.99;99793.50;4416028;32;33877;-82
2023/04/20 03:37:49;;;;;;;;;;;;;;;11.89;58.28;99792.12;4402126;32;33696;-82
2023/04/20 03:40:21;;;;;;;;;;;;;;;12.03;57.58;99799.41;4419598;32;34594;-83
2023/04/20 03:42:50;;;;;;;;;;;;;;;11.72;57.54;99800.00;4405960;32;32722;-82
2023/04/20 03:45:18;;;;;;;;;;;;;;;11.66;58.05;99800.31;4417865;32;34489;-83
2023/04/20 03:47:49;;;;;;;;;;;;;;;11.64;57.95;99813.59;4401230;32;33224;-82
2023/04/20 03:50:16;;;;;;;;;;;;;;;11.52;58.17;99809.75;4417057;32;34578;-82
2023/04/20 03:52:44;;;;;;;;;;;;;;;11.72;57.19;99802.63;4417071;32;33559;-82
2023/04/20 03:55:18;;;;;;;;;;;;;;;11.49;58.34;99809.06;4402426;32;33887;-82
2023/04/20 03:57:46;;;;;;;;;;;;;;;11.65;58.06;99811.81;4428624;32;35121;-82
2023/04/20 04:00:19;;;;;;;;;;;;;;;11.76;56.88;99815.66;4415090;32;34222;-82
2023/04/20 04:02:51;;;;;;;;;;;;;;;11.54;57.75;99818.47;4411304;32;32483;-82
2023/04/20 04:05:21;;;;;;;;;;;;;;;11.70;57.28;99820.38;4403764;32;33840;-82
2023/04/20 04:07:49;;;;;;;;;;;;;;;11.34;58.17;99821.19;4417131;32;34179;-82
2023/04/20 04:10:19;;;;;;;;;;;;;;;11.28;58.77;99826.75;4408886;32;32947;-83
2023/04/20 04:12:47;;;;;;;;;;;;;;;11.42;58.14;99818.19;4402811;32;32974;-83
2023/04/20 04:15:18;;;;;;;;;;;;;;;11.48;57.81;99820.53;4417172;32;34146;-83
2023/04/20 04:17:54;;;;;;;;;;;;;;;11.48;57.90;99824.03;4410238;32;33590;-82
2023/04/20 04:20:24;;;;;;;;;;;;;;;11.49;57.67;99815.19;4402500;32;34412;-81
2023/04/20 04:22:52;;;;;;;;;;;;;;;11.30;58.57;99819.63;4414484;32;32457;-83
2023/04/20 04:25:22;;;;;;;;;;;;;;;11.20;59.08;99821.84;4415818;32;34513;-83
2023/04/20 04:27:52;;;;;;;;;;;;;;;11.33;58.88;99819.47;4408828;32;33422;-83
2023/04/20 04:30:20;;;;;;;;;;;;;;;11.33;58.81;99819.47;4418045;32;34192;-83
2023/04/20 04:32:49;;;;;;;;;;;;;;;11.38;59.01;99816.63;4403451;32;33280;-84
2023/04/20 04:35:17;;;;;;;;;;;;;;;11.60;57.63;99805.88;4415822;32;33316;-82
2023/04/20 04:37:46;;;;;;;;;;;;;;;11.58;58.00;99808.59;4416319;32;34526;-81
2023/04/20 04:40:17;;;;;;;;;;;;;;;11.73;57.51;99818.47;4417142;32;34058;-80
2023/04/20 04:42:57;;;;;;;;;;;;;;;11.46;58.71;99815.31;4417026;32;33489;-81
2023/04/20 04:45:30;;;;;;;;;;;;;;;11.77;57.80;99820.03;4428385;32;34862;-82
2023/04/20 04:47:58;;;;;;;;;;;;;;;11.86;57.76;99823.16;4413719;32;34197;-83
2023/04/20 04:50:26;;;;;;;;;;;;;;;11.44;58.97;99829.53;4403374;32;34422;-81
2023/04/20 04:52:56;;;;;;;;;;;;;;;11.41;59.42;99837.62;4413931;32;33187;-82
2023/04/20 04:55:25;;;;;;;;;;;;;;;11.44;59.25;99827.78;4415454;32;34838;-81
2023/04/20 04:57:56;;;;;;;;;;;;;;;11.61;58.89;99832.25;4408352;32;33197;-81
2023/04/20 05:00:24;;;;;;;;;;;;;;;11.47;59.70;99832.06;4419473;32;33937;-80
2023/04/20 05:02:52;;;;;;;;;;;;;;;11.86;58.80;99831.97;4405490;32;32094;-81
2023/04/20 05:05:24;;;;;;;;;;;;;;;11.88;58.71;99835.41;4415644;32;33672;-82
2023/04/20 05:07:52;;;;;;;;;;;;;;;11.91;58.66;99837.03;4422214;32;34775;-82
2023/04/20 05:10:29;;;;;;;;;;;;;;;12.03;58.26;99824.06;4407650;32;34866;-80
2023/04/20 05:13:10;;;;;;;;;;;;;;;12.12;57.87;99824.56;4419777;32;33179;-81
2023/04/20 05:15:39;;;;;;;;;;;;;;;12.25;57.78;99830.97;4408053;32;33474;-81
2023/04/20 05:18:10;;;;;;;;;;;;;;;12.42;57.83;99830.94;4401825;32;32971;-80
2023/04/20 05:20:44;;;;;;;;;;;;;;;12.46;57.73;99829.84;4416895;32;33655;-80
2023/04/20 05:25:47;;;;;;;;;;;;;;;12.55;57.30;99826.75;4418780;32;33183;-81
2023/04/20 05:28:17;;;;;;;;;;;;;;;12.59;57.25;99829.25;4390323;32;33114;-81
2023/04/20 05:30:49;;;;;;;;;;;;;;;12.79;57.13;99829.06;4415192;32;34091;-81
2023/04/20 05:33:31;;;;;;;;;;;;;;;13.07;56.68;99829.31;4416254;32;32449;-81
2023/04/20 05:36:02;;;;;;;;;;;;;;;13.14;56.67;99821.88;4416414;32;34094;-81
2023/04/20 05:38:31;;;;;;;;;;;;;;;13.04;56.49;99828.59;4409508;32;33602;-81
2023/04/20 05:41:04;;;;;;;;;;;;;;;13.36;55.83;99832.22;4417648;32;34375;-81
2023/04/20 05:43:35;;;;;;;;;;;;;;;13.81;54.60;99828.81;4416180;32;33382;-81
2023/04/20 05:46:04;;;;;;;;;;;;;;;13.88;54.94;99834.63;4401308;32;33611;-81
2023/04/20 05:48:33;;;;;;;;;;;;;;;13.73;55.17;99835.50;4410202;32;33545;-81
2023/04/20 05:51:02;;;;;;;;;;;;;;;13.88;54.90;99842.59;4419705;32;33777;-81
2023/04/20 05:56:08;;;;;;;;;;;;;;;14.46;53.60;99839.22;4417948;32;33741;-82
2023/04/20 05:58:36;;;;;;;;;;;;;;;14.24;53.67;99838.75;4418802;32;34621;-81
2023/04/20 06:01:10;;;;;;;;;;;;;;;14.33;53.22;99835.56;4415336;32;34561;-81
2023/04/20 06:03:40;;;;;;;;;;;;;;;14.41;53.33;99838.63;4416948;32;33065;-81
2023/04/20 06:06:08;;;;;;;;;;;;;;;14.30;52.89;99841.06;4422328;32;32716;-83
2023/04/20 06:08:39;;;;;;;;;;;;;;;14.88;51.78;99842.09;4419804;32;34291;-81
2023/04/20 06:11:07;;;;;;;;;;;;;;;14.89;51.99;99847.31;4405505;32;32860;-80
2023/04/20 06:13:38;;;;;;;;;;;;;;;14.97;52.57;99842.38;4406919;32;32164;-81
2023/04/20 06:16:10;;;;;;;;;;;;;;;15.04;53.00;99845.50;4417716;32;34185;-81
2023/04/20 06:18:38;;;;;;;;;;;;;;;15.34;51.92;99845.44;4417622;32;34078;-81
2023/04/20 06:21:10;;;;;;;;;;;;;;;15.36;52.20;99848.84;4402066;32;34591;-81
2023/04/20 06:23:39;;;;;;;;;;;;;;;15.55;50.45;99844.06;4418490;32;32779;-81
2023/04/20 06:26:09;;;;;;;;;;;;;;;15.84;48.77;99846.69;4431007;32;33811;-81
2023/04/20 06:28:38;;;;;;;;;;;;;;;15.72;50.55;99839.53;4416481;32;33161;-81
2023/04/20 06:31:06;;;;;;;;;;;;;;;15.86;49.59;99843.00;4406115;32;33897;-81
2023/04/20 06:33:41;;;;;;;;;;;;;;;16.02;49.02;99848.16;4407338;32;32674;-82
2023/04/20 06:36:09;;;;;;;;;;;;;;;15.85;49.84;99849.25;4430653;32;34249;-80
2023/04/20 06:38:39;;;;;;;;;;;;;;;16.26;48.73;99842.19;4429689;32;33935;-82
2023/04/20 06:41:15;;;;;;;;;;;;;;;15.99;49.27;99848.34;4415079;32;35707;-81
2023/04/20 06:43:45;;;;;;;;;;;;;;;15.65;48.07;99847.03;4415153;32;34125;-81
2023/04/20 06:46:14;;;;;;;;;;;;;;;15.98;47.49;99846.66;4414322;32;33320;-82
2023/04/20 06:48:45;;;;;;;;;;;;;;;16.21;47.07;99846.97;4414640;32;33936;-81
2023/04/20 06:51:13;;;;;;;;;;;;;;;16.44;46.45;99843.63;4405848;32;32921;-82
2023/04/20 06:53:43;;;;;;;;;;;;;;;16.24;46.30;99852.09;4418835;32;32843;-83
2023/04/20 06:56:12;;;;;;;;;;;;;;;16.18;47.56;99850.66;4405859;32;33424;-82
2023/04/20 06:58:43;;;;;;;;;;;;;;;16.99;45.69;99844.34;4415954;32;33943;-82
2023/04/20 07:01:11;;;;;;;;;;;;;;;16.54;44.65;99854.50;4418346;32;34809;-82
2023/04/20 07:03:40;;;;;;;;;;;;;;;16.99;44.22;99852.34;4402324;32;32011;-83
2023/04/20 07:06:10;;;;;;;;;;;;;;;16.85;44.90;99854.19;4399204;32;32965;-82
2023/04/20 07:08:40;;;;;;;;;;;;;;;17.21;43.86;99849.03;4417781;32;34708;-83
2023/04/20 07:11:12;;;;;;;;;;;;;;;17.31;44.70;99850.09;4418798;32;34651;-83
2023/04/20 07:13:40;;;;;;;;;;;;;;;17.06;43.36;99846.50;4411237;32;33179;-83
2023/04/20 07:16:09;;;;;;;;;;;;;;;17.33;43.63;99848.19;4404446;32;33093;-82
2023/04/20 07:18:38;;;;;;;;;;;;;;;17.20;42.44;99848.19;4428316;32;33805;-83
2023/04/20 07:21:08;;;;;;;;;;;;;;;17.73;42.63;99846.19;4421374;32;34211;-82
2023/04/20 07:23:37;;;;;;;;;;;;;;;17.63;40.74;99853.16;4401220;32;32630;-82
2023/04/20 07:26:06;;;;;;;;;;;;;;;17.51;41.48;99856.69;4414825;32;34003;-83
2023/04/20 07:28:35;;;;;;;;;;;;;;;17.73;41.18;99846.19;4403130;32;33856;-82
2023/04/20 07:31:03;;;;;;;;;;;;;;;17.36;41.36;99855.97;4414192;32;33451;-84
2023/04/20 07:33:31;;;;;;;;;;;;;;;17.49;42.18;99853.28;4416872;32;33083;-82
2023/04/20 07:36:00;;;;;;;;;;;;;;;17.55;42.39;99852.84;4422438;32;33335;-82
2023/04/20 07:38:32;;;;;;;;;;;;;;;17.69;40.74;99843.84;4418994;32;34486;-83
2023/04/20 07:41:01;;;;;;;;;;;;;;;17.85;40.17;99841.78;4402451;32;33159;-83
2023/04/20 07:46:09;;;;;;;;;;;;;;;18.60;39.04;99845.03;4408748;32;32476;-82
2023/04/20 07:48:37;;;;;;;;;;;;;;;18.48;39.53;99853.16;4401424;32;34190;-83
2023/04/20 07:51:05;;;;;;;;;;;;;;;17.65;41.18;99843.19;4423609;32;32777;-82
2023/04/20 07:53:34;;;;;;;;;;;;;;;17.89;39.85;99856.63;4415516;32;34017;-83
2023/04/20 07:56:04;;;;;;;;;;;;;;;18.07;41.19;99852.59;4403464;32;33354;-83
2023/04/20 07:58:41;;;;;;;;;;;;;;;18.28;39.97;99841.28;4416423;32;34960;-83
2023/04/20 08:01:09;;;;;;;;;;;;;;;18.66;38.65;99851.75;4401688;32;34282;-83
2023/04/20 08:03:38;;;;;;;;;;;;;;;18.63;38.89;99850.16;4406940;32;32337;-82
2023/04/20 08:06:08;;;;;;;;;;;;;;;18.89;39.00;99844.66;4427148;32;34165;-82
2023/04/20 08:08:36;;;;;;;;;;;;;;;19.09;37.92;99843.13;4409785;32;33378;-83
2023/04/20 08:11:06;;;;;;;;;;;;;;;19.54;37.75;99843.13;4394457;32;32662;-82
2023/04/20 08:13:36;;;;;;;;;;;;;;;19.80;37.60;99838.38;4199420;32;6835668;-83
2023/04/20 08:16:07;;;;;;;;;;;;;;;19.49;37.53;99842.63;4404487;32;33778;-83
2023/04/20 08:18:35;;;;;;;;;;;;;;;19.49;36.47;99843.47;4410040;32;33960;-83
2023/04/20 08:21:03;;;;;;;;;;;;;;;19.58;36.96;99833.84;4405943;32;34097;-83
2023/04/20 08:23:32;;;;;;;;;;;;;;;19.40;36.92;99844.22;4418467;32;33414;-84
2023/04/20 08:26:00;;;;;;;;;;;;;;;19.61;37.08;99842.53;4403819;32;33038;-83
2023/04/20 08:28:28;;;;;;;;;;;;;;;19.81;36.00;99840.06;4404149;32;33394;-83
2023/04/20 08:31:01;;;;;;;;;;;;;;;19.69;35.93;99832.03;4406103;32;33803;-83
2023/04/20 08:33:37;;;;;;;;;;;;;;;19.52;36.06;99837.88;4409321;32;31934;-83
2023/04/20 08:36:05;;;;;;;;;;;;;;;20.19;36.79;99829.72;4416976;32;33143;-83
2023/04/20 08:38:35;;;;;;;;;;;;;;;19.93;35.81;99833.69;4418636;32;34535;-83
2023/04/20 08:41:13;;;;;;;;;;;;;;;19.71;36.53;99828.41;4420549;32;34972;-83
2023/04/20 08:43:44;;;;;;;;;;;;;;;20.03;35.98;99834.63;4415336;32;32587;-83
2023/04/20 08:46:16;;;;;;;;;;;;;;;20.21;35.08;99826.91;4418900;32;33546;-83
2023/04/20 08:48:45;;;;;;;;;;;;;;;20.38;35.18;99828.19;4417810;32;33790;-83
2023/04/20 08:51:18;;;;;;;;;;;;;;;20.40;35.58;99828.91;4419965;32;34328;-83
2023/04/20 08:53:46;;;;;;;;;;;;;;;21.16;35.34;99825.03;4411926;32;33765;-84
2023/04/20 08:56:14;;;;;;;;;;;;;;;21.23;34.71;99826.22;4409556;32;33930;-84
2023/04/20 08:58:42;;;;;;;;;;;;;;;21.30;33.45;99820.31;4405687;32;34384;-83
2023/04/20 09:01:10;;;;;;;;;;;;;;;21.63;33.48;99817.34;4415875;32;33834;-84
2023/04/20 09:03:44;;;;;;;;;;;;;;;21.61;33.24;99819.31;4406111;32;31753;-84
2023/04/20 09:06:15;;;;;;;;;;;;;;;21.29;33.97;99818.59;4406980;32;34573;-83
2023/04/20 09:08:45;;;;;;;;;;;;;;;21.58;32.47;99808.00;4414434;32;33093;-83
2023/04/20 09:11:39;;;;;;;;;;;;;;;21.28;34.05;99819.59;4416927;32;33508;-84
2023/04/20 09:14:11;;;;;;;;;;;;;;;21.16;32.55;99814.31;4415028;32;33346;-83
2023/04/20 09:16:52;;;;;;;;;;;;;;;21.13;32.28;99817.28;4411048;32;34720;-84
2023/04/20 09:19:21;;;;;;;;;;;;;;;20.89;33.24;99816.72;4421979;32;34148;-83
2023/04/20 09:24:32;;;;;;;;;;;;;;;21.64;33.32;99812.81;4416210;32;32025;-83
2023/04/20 09:27:04;;;;;;;;;;;;;;;21.93;32.78;99807.50;4419106;32;32923;-83
2023/04/20 09:29:32;;;;;;;;;;;;;;;21.22;32.81;99816.47;4405506;32;33927;-83
2023/04/20 09:32:03;;;;;;;;;;;;;;;21.92;32.13;99805.78;4410104;32;32809;-83
2023/04/20 09:34:40;;;;;;;;;;;;;;;22.23;31.81;99804.72;4418983;32;33367;-83
2023/04/20 09:37:10;;;;;;;;;;;;;;;21.38;32.94;99807.09;4417371;32;34586;-83
2023/04/20 09:39:44;;;;;;;;;;;;;;;21.45;32.17;99813.59;4398842;32;33134;-84
2023/04/20 09:42:13;;;;;;;;;;;;;;;21.26;32.52;99813.50;4417565;32;34709;-84
2023/04/20 09:44:42;;;;;;;;;;;;;;;20.89;33.60;99806.84;4404499;32;32228;-83
2023/04/20 09:47:14;;;;;;;;;;;;;;;20.69;33.33;99811.22;4419355;32;33911;-83
2023/04/20 09:49:49;;;;;;;;;;;;;;;20.76;32.86;99806.19;4418195;32;35030;-84
2023/04/20 09:52:26;;;;;;;;;;;;;;;20.51;34.37;99812.81;4408967;32;33033;-84
2023/04/20 09:54:54;;;;;;;;;;;;;;;20.51;33.01;99807.44;4403084;32;32902;-84
2023/04/20 09:57:21;;;;;;;;;;;;;;;20.91;33.08;99809.38;4416811;32;34074;-84
2023/04/20 10:00:00;;;;;;;;;;;;;;;21.77;30.65;99794.59;4403846;32;34858;-83
2023/04/20 10:02:30;;;;;;;;;;;;;;;21.59;32.13;99788.19;4410056;32;33727;-84
2023/04/20 10:05:02;;;;;;;;;;;;;;;21.76;34.34;99797.44;4427917;32;32354;-83
2023/04/20 10:07:34;;;;;;;;;;;;;;;22.18;34.39;99796.25;4402431;32;35141;-83
2023/04/20 10:10:11;;;;;;;;;;;;;;;22.35;32.97;99791.12;4395204;32;33204;-83
2023/04/20 10:13:00;;;;;;;;;;;;;;;21.98;32.57;99794.47;4418970;32;34208;-83
2023/04/20 10:15:36;;;;;;;;;;;;;;;22.21;30.87;99798.62;4419988;32;34018;-83
2023/04/20 10:18:22;;;;;;;;;;;;;;;22.41;31.05;99795.97;4414264;32;34699;-83
2023/04/20 10:20:59;;;;;;;;;;;;;;;22.62;31.15;99787.72;4407186;32;33083;-83
2023/04/20 10:23:28;;;;;;;;;;;;;;;22.52;32.55;99790.41;4415289;32;33928;-83
2023/04/20 10:25:59;;;;;;;;;;;;;;;22.42;31.41;99786.88;4401277;32;31674;-83
2023/04/20 10:28:40;;;;;;;;;;;;;;;22.09;32.86;99785.44;4396326;32;33538;-83
2023/04/20 10:31:15;;;;;;;;;;;;;;;21.77;32.65;99786.53;4418989;32;34139;-83
2023/04/20 10:33:50;;;;;;;;;;;;;;;21.78;33.76;99782.84;4416298;32;33428;-83
2023/04/20 10:36:22;;;;;;;;;;;;;;;22.02;33.35;99787.00;4415508;32;32924;-83
2023/04/20 10:41:31;;;;;;;;;;;;;;;21.66;33.24;99784.81;4423094;32;34263;-83
2023/04/20 10:44:10;;;;;;;;;;;;;;;21.75;33.88;99782.31;4429702;32;32179;-83
2023/04/20 10:46:41;;;;;;;;;;;;;;;21.86;33.76;99771.41;4410273;32;33877;-83
2023/04/20 10:51:53;;;;;;;;;;;;;;;22.09;31.55;99770.16;4429287;32;33979;-83
2023/04/20 10:54:24;;;;;;;;;;;;;;;21.63;33.02;99768.97;4429985;32;33643;-83
2023/04/20 10:57:01;;;;;;;;;;;;;;;20.97;33.68;99763.22;4419378;32;31910;-83
2023/04/20 10:59:30;;;;;;;;;;;;;;;21.66;32.47;99763.34;4416111;32;32788;-83
2023/04/20 11:02:00;;;;;;;;;;;;;;;21.78;33.20;99757.81;4403119;32;33085;-83
2023/04/20 11:04:33;;;;;;;;;;;;;;;21.57;32.87;99758.78;4409279;32;34017;-83
2023/04/20 11:07:07;;;;;;;;;;;;;;;21.62;33.04;99756.53;4419553;32;32379;-83
2023/04/20 11:09:41;;;;;;;;;;;;;;;22.23;31.21;99764.37;4428104;32;34876;-83
2023/04/20 11:12:16;;;;;;;;;;;;;;;21.95;32.19;99757.13;4421613;32;34252;-83
2023/04/20 11:14:53;;;;;;;;;;;;;;;22.17;33.42;99759.59;4397803;32;33095;-83
2023/04/20 11:17:31;;;;;;;;;;;;;;;21.98;33.48;99756.84;4427750;32;34014;-83
2023/04/20 11:20:12;;;;;;;;;;;;;;;22.07;32.08;99760.53;4415709;32;33886;-83
2023/04/20 11:22:42;;;;;;;;;;;;;;;21.67;32.74;99756.13;4403836;32;33529;-83
2023/04/20 11:25:11;;;;;;;;;;;;;;;21.60;33.75;99753.16;4419653;32;33118;-83
2023/04/20 11:27:39;;;;;;;;;;;;;;;22.16;32.89;99751.63;4392265;32;33278;-83
2023/04/20 11:30:08;;;;;;;;;;;;;;;22.15;32.32;99748.09;4416273;32;34013;-83
2023/04/20 11:32:39;;;;;;;;;;;;;;;21.98;33.83;99751.47;4415818;32;33775;-83
2023/04/20 11:35:08;;;;;;;;;;;;;;;22.04;33.87;99745.53;4417187;32;33147;-83
2023/04/20 11:37:53;;;;;;;;;;;;;;;22.15;32.31;99747.25;4403081;32;32068;-83
2023/04/20 11:40:24;;;;;;;;;;;;;;;22.65;32.20;99737.13;4396913;32;34572;-82
2023/04/20 11:42:57;;;;;;;;;;;;;;;22.89;30.15;99741.22;4404518;32;34714;-82
2023/04/20 11:45:26;;;;;;;;;;;;;;;22.91;28.40;99736.50;4405285;32;33920;-82
2023/04/20 11:47:55;;;;;;;;;;;;;;;23.20;27.69;99734.53;4406473;32;33936;-82
2023/04/20 11:50:25;;;;;;;;;;;;;;;22.23;30.07;99742.87;4405527;32;34067;-82
2023/04/20 11:52:54;;;;;;;;;;;;;;;22.32;30.46;99743.00;4404548;32;34267;-82
2023/04/20 11:55:21;;;;;;;;;;;;;;;22.51;30.22;99742.97;4393594;32;32817;-82
2023/04/20 11:57:49;;;;;;;;;;;;;;;22.30;31.50;99742.28;4380817;32;32741;-82
2023/04/20 12:00:18;;;;;;;;;;;;;;;21.95;31.52;99735.63;4379284;32;32745;-82
2023/04/20 12:02:48;;;;;;;;;;;;;;;21.00;32.18;99744.16;4397132;32;32839;-82
2023/04/20 12:05:16;;;;;;;;;;;;;;;21.25;31.14;99741.97;4399835;32;35230;-82
2023/04/20 12:07:45;;;;;;;;;;;;;;;21.40;31.19;99740.63;4390384;32;32482;-82
2023/04/20 12:10:14;;;;;;;;;;;;;;;21.90;29.68;99735.22;4395430;32;34681;-82
2023/04/20 12:12:45;;;;;;;;;;;;;;;21.79;29.80;99735.31;4398284;32;33551;-82
2023/04/20 12:15:17;;;;;;;;;;;;;;;21.91;29.47;99734.22;4414456;32;33543;-82
2023/04/20 12:17:46;;;;;;;;;;;;;;;21.96;30.37;99737.31;4388431;32;34275;-82
2023/04/20 12:20:14;;;;;;;;;;;;;;;21.72;31.44;99719.78;4393351;32;34211;-82
2023/04/20 12:22:44;;;;;;;;;;;;;;;22.06;30.34;99730.09;4410571;32;32933;-82
2023/04/20 12:25:13;;;;;;;;;;;;;;;21.81;30.91;99728.84;4397777;32;33141;-82
2023/04/20 12:27:51;;;;;;;;;;;;;;;21.30;31.07;99734.37;4401689;32;33142;-82
2023/04/20 12:30:26;;;;;;;;;;;;;;;21.56;31.09;99729.38;4400529;32;34314;-82
2023/04/20 12:32:53;;;;;;;;;;;;;;;21.89;32.48;99725.44;4405386;32;34455;-82
2023/04/20 12:40:54;;;;;;;;;;;;;;;22.26;33.07;99722.03;4399121;32;33214;-82
2023/04/20 12:43:22;;;;;;;;;;;;;;;22.05;32.50;99722.19;4417283;32;33492;-82
2023/04/20 12:45:51;;;;;;;;;;;;;;;21.91;33.13;99718.09;4395726;32;34582;-82
2023/04/20 12:48:19;;;;;;;;;;;;;;;22.23;32.16;99717.81;4398811;32;32426;-82
2023/04/20 12:50:49;;;;;;;;;;;;;;;22.13;31.57;99720.53;4391511;32;33997;-82
2023/04/20 12:53:18;;;;;;;;;;;;;;;21.97;32.05;99720.19;4392430;32;33441;-83
2023/04/20 12:55:48;;;;;;;;;;;;;;;22.27;31.13;99713.00;4395619;32;32513;-82
2023/04/20 12:58:30;;;;;;;;;;;;;;;22.30;32.76;99712.69;4400237;32;33601;-82
2023/04/20 13:00:59;;;;;;;;;;;;;;;21.89;32.76;99714.69;4390258;32;34879;-82
2023/04/20 13:03:41;;;;;;;;;;;;;;;22.34;32.14;99716.81;4395307;32;32834;-82
2023/04/20 13:06:14;;;;;;;;;;;;;;;22.26;32.54;99705.91;4388224;32;33887;-82
2023/04/20 13:08:43;;;;;;;;;;;;;;;22.59;32.02;99708.09;4390929;32;33040;-83
2023/04/20 13:11:16;;;;;;;;;;;;;;;22.09;32.05;99710.16;4391613;32;33405;-82
2023/04/20 13:13:48;;;;;;;;;;;;;;;22.17;32.27;99703.13;4394537;32;33106;-82
2023/04/20 13:16:18;;;;;;;;;;;;;;;22.51;31.42;99699.94;4402006;32;35108;-82
2023/04/20 13:18:47;;;;;;;;;;;;;;;22.18;32.10;99702.13;4400076;32;32910;-82
2023/04/20 13:21:15;;;;;;;;;;;;;;;22.35;32.24;99691.59;4399545;32;32908;-82
2023/04/20 13:23:45;;;;;;;;;;;;;;;22.63;32.27;99687.13;4401046;32;33985;-82
2023/04/20 13:26:13;;;;;;;;;;;;;;;22.91;30.98;99693.44;4391188;32;33086;-82